MKJP Airport Information

Runway Information
Runway 12 Length 8900 ft width 150 ft
Elevation 8 ft Threshold 0 ft Heading 112
Runway 30 Length 8900 ft Width 150 ft
Elevation 17 ft Threshold 0 ft Heading 292
Airport Frequencies
Type APP Name MANLEY APP Frequency 120.6 MHZ
Type ATIS Name ATIS Frequency 127.7 MHZ
Type GND Name GND Frequency 121.7 MHZ
Type TWR Name MANLEY TWR Frequency 118.65 MHZ
Airport Navaids
Type NDB Name Kingston Frequency 360 KHZ
Type VOR-DME Name Manley Frequency 115500 KHZ
Airport Weather Information & NOTAM
ADDS - METARS form results

(0150 UTC 19 January 2018)
 
METAR text: MKJP 190100Z 14006KT 9999 FEW024 27/22 Q1015
Conditions at: MKJP (KINGSTON/NORMAN , JM) observed 0100 UTC 19 January 2018
Temperature: 27.0°C (81°F)
Dewpoint: 22.0°C (72°F) [RH = 74%]
Pressure (altimeter): 29.97 inches Hg (1015.0 mb)
Winds: from the SE (140 degrees) at 7 MPH (6 knots; 3.1 m/s)
Visibility: 6 or more miles (10+ km)
Ceiling: at least 12,000 feet AGL
Clouds: few clouds at 2400 feet AGL
Weather: no significant weather observed at this time